Time;durP1;ratioP1;P1;durP2;ratioP2;P2;SDS_P1;SDS_P2;PMS_P1;PMS_P2;Temp;Humidity;BMP_temperature;BMP_pressure;BME280_temperature;BME280_humidity;BME280_pressure;Samples;Min_cycle;Max_cycle;Signal;HPM_P1;HPM_P2
2022/08/23 00:01:11;;;;;;;6.93;3.75;;;18.20;99.90;;;;;;5020408;28;20557;-59
2022/08/23 00:03:37;;;;;;;7.85;4.38;;;18.10;99.90;;;;;;5005666;28;20049;-60
2022/08/23 00:06:04;;;;;;;7.43;4.40;;;18.10;99.90;;;;;;5021301;28;20037;-60
2022/08/23 00:08:30;;;;;;;9.30;4.82;;;18.10;99.90;;;;;;5020428;28;20081;-59
2022/08/23 00:10:57;;;;;;;8.40;4.47;;;18.10;99.90;;;;;;5022041;28;20041;-58
2022/08/23 00:13:23;;;;;;;6.88;4.13;;;18.00;99.90;;;;;;5021198;28;20537;-60
2022/08/23 00:15:50;;;;;;;6.25;4.70;;;18.00;99.90;;;;;;5022643;28;20056;-59
2022/08/23 00:18:17;;;;;;;8.68;4.57;;;18.00;99.90;;;;;;5019403;28;20076;-58
2022/08/23 00:20:43;;;;;;;6.38;3.63;;;17.90;99.90;;;;;;5020046;28;20048;-60
2022/08/23 00:23:09;;;;;;;6.47;3.72;;;17.90;99.90;;;;;;5020670;28;20099;-60
2022/08/23 00:25:35;;;;;;;6.00;3.25;;;17.90;99.90;;;;;;5020621;28;20076;-60
2022/08/23 00:28:01;;;;;;;6.38;3.70;;;17.90;99.90;;;;;;5019378;28;20460;-60
2022/08/23 00:30:27;;;;;;;7.80;3.83;;;17.90;99.90;;;;;;5021055;28;20084;-59
2022/08/23 00:32:53;;;;;;;9.20;5.72;;;17.80;99.90;;;;;;5022067;28;20104;-59
2022/08/23 00:35:20;;;;;;;7.25;5.03;;;17.70;99.90;;;;;;5020101;28;20068;-59
2022/08/23 00:37:46;;;;;;;6.70;4.95;;;17.70;99.90;;;;;;5021699;28;20041;-59
2022/08/23 00:40:16;;;;;;;5.68;4.60;;;17.70;99.90;;;;;;5020717;28;20053;-59
2022/08/23 00:48:33;;;;;;;8.38;5.13;;;17.70;99.90;;;;;;5022188;28;20060;-59
2022/08/23 00:51:05;;;;;;;7.35;4.57;;;17.60;99.90;;;;;;5021493;28;20041;-59
2022/08/23 00:53:45;;;;;;;5.00;3.88;;;17.60;99.90;;;;;;5019468;28;20061;-57
2022/08/23 00:56:14;;;;;;;9.15;4.47;;;17.60;99.90;;;;;;5024234;28;20061;-59
2022/08/23 00:58:40;;;;;;;4.70;3.20;;;17.50;99.90;;;;;;5024729;28;20045;-58
2022/08/23 01:01:06;;;;;;;4.50;2.60;;;17.50;99.90;;;;;;5022021;28;20957;-59
2022/08/23 01:03:36;;;;;;;5.90;2.42;;;17.40;99.90;;;;;;5023508;28;20041;-60
2022/08/23 01:06:29;;;;;;;2.85;2.28;;;17.40;99.90;;;;;;5023746;28;20049;-58
2022/08/23 01:08:59;;;;;;;;;;;17.30;99.90;;;;;;5026172;28;20492;-59
2022/08/23 01:11:32;;;;;;;3.13;1.60;;;17.20;99.90;;;;;;5025016;28;19924;-59
2022/08/23 01:14:10;;;;;;;2.20;1.60;;;17.10;99.90;;;;;;5022262;28;20060;-59
2022/08/23 01:16:44;;;;;;;3.40;1.75;;;17.10;99.90;;;;;;5023221;28;20087;-61
2022/08/23 01:19:31;;;;;;;1.77;1.52;;;17.10;99.90;;;;;;5021047;28;20395;-60
2022/08/23 01:22:22;;;;;;;3.88;2.10;;;17.00;99.90;;;;;;5025146;28;20068;-60
2022/08/23 01:24:48;;;;;;;2.70;2.08;;;17.00;99.90;;;;;;5023805;28;20610;-59
2022/08/23 01:27:14;;;;;;;3.95;2.70;;;17.00;99.90;;;;;;5024130;28;20046;-57
2022/08/23 01:29:41;;;;;;;5.93;3.08;;;17.00;99.90;;;;;;5022882;28;20049;-59
2022/08/23 01:32:12;;;;;;;6.30;3.45;;;17.00;99.90;;;;;;5023487;28;20132;-60
2022/08/23 01:34:38;;;;;;;7.85;4.60;;;17.00;99.90;;;;;;5022746;28;20468;-58
2022/08/23 01:37:08;;;;;;;6.00;3.83;;;17.00;99.90;;;;;;5006496;28;20045;-59
2022/08/23 01:39:35;;;;;;;6.22;4.13;;;17.00;99.90;;;;;;5024624;28;20099;-59
2022/08/23 01:42:01;;;;;;;6.35;4.75;;;16.90;99.90;;;;;;5023273;28;20053;-59
2022/08/23 01:44:27;;;;;;;7.43;5.18;;;16.90;99.90;;;;;;5023006;28;20040;-59
2022/08/23 01:46:53;;;;;;;10.98;6.10;;;16.90;99.90;;;;;;5022809;28;20136;-59
2022/08/23 01:49:19;;;;;;;9.77;4.85;;;16.90;99.90;;;;;;5022422;28;20085;-59
2022/08/23 01:51:45;;;;;;;10.80;6.10;;;16.90;99.90;;;;;;5023559;28;20075;-57
2022/08/23 01:54:12;;;;;;;10.20;5.95;;;16.90;99.90;;;;;;5023286;28;20391;-59
2022/08/23 01:56:39;;;;;;;13.55;6.82;;;16.90;99.90;;;;;;5022233;28;20049;-59
2022/08/23 01:59:07;;;;;;;9.65;6.28;;;16.90;99.90;;;;;;5023027;28;20052;-59
2022/08/23 02:01:32;;;;;;;7.32;5.85;;;16.90;99.90;;;;;;5022779;28;20053;-60
2022/08/23 02:03:58;;;;;;;6.15;4.43;;;16.90;99.90;;;;;;5022064;28;20042;-58
2022/08/23 02:06:24;;;;;;;7.20;3.85;;;16.90;99.90;;;;;;5024133;28;20033;-58
2022/08/23 02:09:03;;;;;;;6.80;4.03;;;16.90;99.90;;;;;;5023062;28;20152;-59
2022/08/23 02:11:32;;;;;;;5.05;3.63;;;16.80;99.90;;;;;;5023204;28;20045;-59
2022/08/23 02:14:01;;;;;;;6.00;3.50;;;16.80;99.90;;;;;;5023317;28;20045;-59
2022/08/23 02:16:34;;;;;;;5.90;3.30;;;16.80;99.90;;;;;;5021384;28;20077;-59
2022/08/23 02:19:03;;;;;;;5.45;3.13;;;16.80;99.90;;;;;;5022244;28;20161;-59
2022/08/23 02:21:32;;;;;;;4.50;3.25;;;16.70;99.90;;;;;;5023492;28;20061;-59
2022/08/23 02:24:02;;;;;;;4.70;2.83;;;16.70;99.90;;;;;;5022499;28;20042;-59
2022/08/23 02:26:28;;;;;;;4.05;3.25;;;16.60;99.90;;;;;;5022796;28;20061;-59
2022/08/23 02:28:53;;;;;;;4.00;3.17;;;16.60;99.90;;;;;;5023561;28;20041;-59
2022/08/23 02:31:20;;;;;;;6.38;3.63;;;16.60;99.90;;;;;;5021489;28;20056;-58
2022/08/23 02:33:47;;;;;;;4.78;3.72;;;16.60;99.90;;;;;;5023243;28;20745;-58
2022/08/23 02:36:13;;;;;;;5.93;4.00;;;16.60;99.90;;;;;;5022055;28;20060;-60
2022/08/23 02:38:39;;;;;;;5.47;3.92;;;16.60;99.90;;;;;;5023265;28;20110;-59
2022/08/23 02:41:05;;;;;;;3.90;3.13;;;16.50;99.90;;;;;;5021899;28;20067;-58
2022/08/23 02:43:32;;;;;;;4.90;2.90;;;16.50;99.90;;;;;;5003838;28;20512;-60
2022/08/23 02:45:58;;;;;;;2.67;2.45;;;16.50;99.90;;;;;;5022340;28;21484;-58
2022/08/23 02:48:24;;;;;;;3.75;2.75;;;16.40;99.90;;;;;;5022873;28;20034;-59
2022/08/23 02:50:51;;;;;;;5.35;2.30;;;16.40;99.90;;;;;;4988505;28;20045;-59
2022/08/23 02:53:17;;;;;;;5.38;3.22;;;16.40;99.90;;;;;;5022450;28;20530;-59
2022/08/23 02:55:46;;;;;;;4.75;3.10;;;16.40;99.90;;;;;;5004763;28;20049;-58
2022/08/23 02:58:12;;;;;;;10.55;5.70;;;16.40;99.90;;;;;;5005002;28;20685;-59
2022/08/23 03:00:38;;;;;;;5.97;4.90;;;16.40;99.90;;;;;;5021567;28;20056;-59
2022/08/23 03:03:04;;;;;;;9.45;6.68;;;16.40;99.90;;;;;;5021418;28;20045;-59
2022/08/23 03:05:30;;;;;;;7.38;5.43;;;16.40;99.90;;;;;;5020380;28;20090;-58
2022/08/23 03:07:56;;;;;;;7.35;5.88;;;16.40;99.90;;;;;;5022230;28;20037;-59
2022/08/23 03:10:23;;;;;;;10.70;7.13;;;16.40;99.90;;;;;;5021878;28;20092;-59
2022/08/23 03:12:49;;;;;;;8.65;6.40;;;16.40;99.90;;;;;;5022588;28;20075;-59
2022/08/23 03:15:15;;;;;;;8.18;5.43;;;16.40;99.90;;;;;;5021978;28;20052;-58
2022/08/23 03:17:41;;;;;;;6.45;3.78;;;16.40;99.90;;;;;;5020453;28;20053;-58
2022/08/23 03:20:07;;;;;;;5.45;3.00;;;16.40;99.90;;;;;;5019855;28;20057;-59
2022/08/23 03:22:33;;;;;;;5.28;2.97;;;16.40;99.90;;;;;;5021914;28;20381;-59
2022/08/23 03:25:00;;;;;;;5.85;3.88;;;16.30;99.90;;;;;;5021494;28;20037;-59
2022/08/23 03:27:26;;;;;;;10.40;4.00;;;16.30;99.90;;;;;;5021918;28;20086;-59
2022/08/23 03:29:52;;;;;;;10.48;6.45;;;16.30;99.90;;;;;;5021280;28;20475;-59
2022/08/23 03:32:18;;;;;;;13.27;7.85;;;16.30;99.90;;;;;;5021260;28;20045;-58
2022/08/23 03:34:43;;;;;;;11.75;8.05;;;16.30;99.90;;;;;;5020552;28;20096;-58
2022/08/23 03:37:09;;;;;;;11.02;8.50;;;16.30;99.90;;;;;;5022347;28;20155;-59
2022/08/23 03:39:35;;;;;;;14.00;9.57;;;16.30;99.90;;;;;;5021931;28;20075;-59
2022/08/23 03:42:01;;;;;;;15.30;9.07;;;16.30;99.90;;;;;;5017893;28;20049;-58
2022/08/23 03:44:27;;;;;;;13.10;9.60;;;16.40;99.90;;;;;;5020176;28;20607;-60
2022/08/23 03:46:53;;;;;;;14.40;9.68;;;16.40;99.90;;;;;;5021283;28;20052;-58
2022/08/23 03:49:19;;;;;;;12.68;9.40;;;16.40;99.90;;;;;;5020696;28;20038;-58
2022/08/23 03:51:44;;;;;;;16.63;9.38;;;16.40;99.90;;;;;;5018373;28;20512;-59
2022/08/23 03:54:10;;;;;;;14.80;10.13;;;16.40;99.90;;;;;;5019321;28;20045;-59
2022/08/23 03:56:48;;;;;;;19.50;10.60;;;16.40;99.90;;;;;;5021033;28;20052;-57
2022/08/23 03:59:14;;;;;;;18.00;10.43;;;16.40;99.90;;;;;;5020010;28;20041;-59
2022/08/23 04:01:40;;;;;;;12.25;8.70;;;16.40;99.90;;;;;;5020317;28;20103;-59
2022/08/23 04:04:06;;;;;;;13.00;8.90;;;16.40;99.90;;;;;;5019550;28;20128;-60
2022/08/23 04:06:32;;;;;;;10.27;6.68;;;16.40;99.90;;;;;;5022295;28;20049;-59
2022/08/23 04:08:58;;;;;;;13.43;7.75;;;16.40;99.90;;;;;;5018682;28;20096;-58
2022/08/23 04:11:24;;;;;;;16.40;10.05;;;16.40;99.90;;;;;;5020709;28;20041;-59
2022/08/23 04:13:51;;;;;;;15.90;9.90;;;16.40;99.90;;;;;;5019315;28;20049;-59
2022/08/23 04:16:17;;;;;;;9.40;6.97;;;16.40;99.90;;;;;;5022039;28;20053;-59
2022/08/23 04:18:44;;;;;;;9.75;6.47;;;16.40;99.90;;;;;;5020517;28;20045;-59
2022/08/23 04:21:15;;;;;;;8.95;4.95;;;16.40;99.90;;;;;;5018378;28;20057;-58
2022/08/23 04:23:42;;;;;;;8.75;4.70;;;16.30;99.90;;;;;;5019826;28;20057;-58
2022/08/23 04:26:08;;;;;;;9.30;4.80;;;16.30;99.90;;;;;;5019911;28;20045;-59
2022/08/23 04:28:35;;;;;;;12.63;7.95;;;16.30;99.90;;;;;;5020134;28;20037;-59
2022/08/23 04:31:03;;;;;;;7.75;5.80;;;16.20;99.90;;;;;;5024443;28;20045;-59
2022/08/23 04:33:34;;;;;;;8.13;5.10;;;16.20;99.90;;;;;;5024833;28;20049;-59
2022/08/23 04:36:01;;;;;;;6.22;5.47;;;16.20;99.90;;;;;;5022955;28;20056;-59
2022/08/23 04:38:27;;;;;;;10.65;7.88;;;16.10;99.90;;;;;;5025166;28;20511;-58
2022/08/23 04:43:39;;;;;;;13.35;8.32;;;16.20;99.90;;;;;;5023163;28;20108;-58
2022/08/23 04:46:05;;;;;;;13.00;8.95;;;16.20;99.90;;;;;;5025081;28;20150;-59
2022/08/23 04:48:32;;;;;;;19.10;12.93;;;16.20;99.90;;;;;;5024591;28;20845;-59
2022/08/23 04:50:58;;;;;;;21.40;12.77;;;16.20;99.90;;;;;;5024470;28;20522;-60
2022/08/23 04:53:24;;;;;;;16.52;10.65;;;16.20;99.90;;;;;;5023612;28;20057;-59
2022/08/23 04:55:51;;;;;;;16.40;11.30;;;16.30;99.90;;;;;;5024318;28;20043;-59
2022/08/23 04:58:17;;;;;;;13.40;10.63;;;16.30;99.90;;;;;;5024649;28;20068;-58
2022/08/23 05:00:43;;;;;;;16.05;12.43;;;16.30;99.90;;;;;;5023123;28;20052;-59
2022/08/23 05:03:09;;;;;;;16.67;11.55;;;16.30;99.90;;;;;;5021736;28;20057;-58
2022/08/23 05:05:35;;;;;;;22.35;15.35;;;16.30;99.90;;;;;;5021951;28;20132;-58
2022/08/23 05:08:01;;;;;;;17.20;14.02;;;16.40;99.90;;;;;;5024896;28;20163;-59
2022/08/23 05:10:28;;;;;;;16.90;13.35;;;16.40;99.90;;;;;;5024042;28;20045;-59
2022/08/23 05:12:54;;;;;;;29.48;15.85;;;16.50;99.90;;;;;;5023984;28;20101;-57
2022/08/23 05:15:20;;;;;;;21.85;16.08;;;16.50;99.90;;;;;;5006755;28;20453;-58
2022/08/23 05:17:46;;;;;;;19.45;14.63;;;16.50;99.90;;;;;;5022799;28;20115;-59
2022/08/23 05:20:11;;;;;;;21.10;15.63;;;16.60;99.90;;;;;;5022730;28;20057;-59
2022/08/23 05:22:39;;;;;;;19.23;15.68;;;16.60;99.90;;;;;;5024905;28;20037;-59
2022/08/23 05:25:06;;;;;;;22.25;14.73;;;16.70;99.90;;;;;;5025563;28;20048;-60
2022/08/23 05:27:32;;;;;;;24.23;14.80;;;16.70;99.90;;;;;;5039511;28;20052;-60
2022/08/23 05:29:59;;;;;;;20.88;15.13;;;16.80;99.90;;;;;;5039280;28;20045;-58
2022/08/23 05:32:25;;;;;;;19.83;14.02;;;16.80;99.90;;;;;;5023679;28;20053;-59
2022/08/23 05:34:51;;;;;;;19.65;13.98;;;16.80;99.90;;;;;;5021672;28;20163;-59
2022/08/23 05:37:16;;;;;;;22.42;13.63;;;16.90;99.90;;;;;;5022878;28;20052;-58
2022/08/23 05:39:42;;;;;;;18.85;14.15;;;16.90;99.90;;;;;;5022646;28;20053;-60
2022/08/23 05:42:12;;;;;;;18.10;13.55;;;17.00;99.90;;;;;;5023274;28;20067;-58
2022/08/23 05:44:38;;;;;;;24.02;13.10;;;17.00;99.90;;;;;;5022613;28;20038;-59
2022/08/23 05:47:07;;;;;;;18.88;13.98;;;17.00;99.90;;;;;;5022592;28;20061;-59
2022/08/23 05:49:37;;;;;;;18.88;13.48;;;17.10;99.90;;;;;;5023390;28;20041;-59
2022/08/23 05:52:04;;;;;;;17.25;12.60;;;17.10;99.90;;;;;;5024085;28;20068;-59
2022/08/23 05:54:30;;;;;;;22.02;13.07;;;17.20;99.90;;;;;;5021896;28;20087;-59
2022/08/23 05:56:56;;;;;;;18.40;12.77;;;17.20;99.90;;;;;;5023275;28;20175;-59
2022/08/23 05:59:22;;;;;;;19.35;12.32;;;17.30;99.90;;;;;;5022284;28;20079;-58
2022/08/23 06:01:48;;;;;;;17.73;12.77;;;17.30;99.90;;;;;;5021736;28;20041;-60
2022/08/23 06:04:15;;;;;;;20.60;12.18;;;17.40;99.90;;;;;;5023370;28;20041;-59
2022/08/23 06:06:41;;;;;;;16.38;12.27;;;17.50;99.90;;;;;;5022633;28;20045;-59
2022/08/23 06:09:10;;;;;;;16.80;12.88;;;17.60;99.90;;;;;;5021647;28;20434;-59
2022/08/23 06:11:36;;;;;;;15.95;12.25;;;17.60;99.90;;;;;;5023562;28;20068;-59
2022/08/23 06:14:04;;;;;;;17.98;11.80;;;17.80;99.90;;;;;;5023656;28;20084;-58
2022/08/23 06:16:33;;;;;;;15.57;11.77;;;17.80;99.90;;;;;;5020785;28;20041;-59
2022/08/23 06:19:03;;;;;;;15.43;11.40;;;17.80;99.90;;;;;;5023311;28;20076;-59
2022/08/23 06:21:29;;;;;;;15.35;10.65;;;17.90;99.90;;;;;;5019490;28;20072;-59
2022/08/23 06:23:55;;;;;;;16.27;11.45;;;17.90;99.90;;;;;;5022877;28;20038;-59
2022/08/23 06:26:29;;;;;;;13.90;10.95;;;18.00;99.90;;;;;;5021188;28;20084;-59
2022/08/23 06:28:58;;;;;;;15.98;11.60;;;18.00;99.90;;;;;;5021839;28;20048;-58
2022/08/23 06:31:44;;;;;;;15.95;11.20;;;18.00;99.90;;;;;;5022917;28;20578;-59
2022/08/23 06:34:20;;;;;;;14.15;10.63;;;18.10;99.90;;;;;;5023072;28;20046;-59
2022/08/23 06:36:55;;;;;;;16.60;11.00;;;18.10;99.90;;;;;;5023552;28;20464;-58
2022/08/23 06:39:24;;;;;;;17.95;11.18;;;18.20;99.90;;;;;;5037746;28;20061;-59
2022/08/23 06:41:51;;;;;;;18.50;10.52;;;18.30;99.90;;;;;;5020462;28;20052;-59
2022/08/23 06:44:17;;;;;;;13.07;10.10;;;18.40;99.90;;;;;;5022431;28;20044;-59
2022/08/23 06:46:44;;;;;;;14.93;10.57;;;18.40;99.90;;;;;;5022059;28;20041;-58
2022/08/23 06:49:10;;;;;;;13.73;9.93;;;18.50;99.90;;;;;;5022584;28;20128;-60
2022/08/23 06:51:47;;;;;;;17.60;10.23;;;18.60;99.90;;;;;;5018314;28;20211;-60
2022/08/23 06:54:15;;;;;;;17.55;9.68;;;18.60;99.90;;;;;;5036927;28;20053;-59
2022/08/23 06:56:42;;;;;;;14.02;9.15;;;18.70;99.90;;;;;;5021227;28;20152;-58
2022/08/23 06:59:08;;;;;;;12.70;9.13;;;18.80;99.90;;;;;;5020590;28;20449;-58
2022/08/23 07:01:49;;;;;;;14.63;9.07;;;18.90;99.90;;;;;;5021215;28;20106;-59
2022/08/23 07:04:18;;;;;;;15.38;8.73;;;19.00;99.90;;;;;;5022013;28;20120;-58
2022/08/23 07:06:44;;;;;;;14.18;8.85;;;19.10;99.90;;;;;;5021136;28;20080;-60
2022/08/23 07:09:11;;;;;;;11.43;8.57;;;19.20;99.90;;;;;;5020773;28;20049;-59
2022/08/23 07:11:38;;;;;;;12.27;8.20;;;19.30;99.90;;;;;;5020197;28;20120;-61
2022/08/23 07:14:09;;;;;;;11.25;8.23;;;19.40;99.90;;;;;;5020548;28;20083;-60
2022/08/23 07:16:39;;;;;;;10.45;7.43;;;19.50;99.90;;;;;;5019743;28;20049;-59
2022/08/23 07:19:05;;;;;;;12.45;8.02;;;19.50;99.90;;;;;;5021845;28;20055;-59
2022/08/23 07:21:31;;;;;;;13.02;7.85;;;19.70;99.90;;;;;;5018826;28;20423;-61
2022/08/23 07:23:57;;;;;;;11.32;7.78;;;19.80;99.90;;;;;;5019914;28;20041;-58
2022/08/23 07:26:23;;;;;;;10.90;7.22;;;19.90;99.90;;;;;;5019195;28;20091;-60
2022/08/23 07:28:50;;;;;;;11.15;6.60;;;20.00;99.90;;;;;;5022139;28;20440;-59
2022/08/23 07:31:22;;;;;;;11.65;6.53;;;20.10;99.90;;;;;;5021966;28;20049;-59
2022/08/23 07:33:49;;;;;;;7.95;5.85;;;20.30;99.90;;;;;;5018623;28;20098;-58
2022/08/23 07:36:19;;;;;;;14.23;6.00;;;20.40;99.90;;;;;;5018244;28;20139;-59
2022/08/23 07:38:45;;;;;;;8.95;6.00;;;20.50;99.90;;;;;;5021154;28;20095;-58
2022/08/23 07:41:13;;;;;;;12.10;5.82;;;20.60;99.90;;;;;;5020805;28;20138;-59
2022/08/23 07:43:40;;;;;;;8.38;5.00;;;20.80;99.90;;;;;;5020666;28;20052;-57
2022/08/23 07:46:07;;;;;;;9.00;5.28;;;20.90;99.90;;;;;;5020920;28;20064;-59
2022/08/23 07:48:34;;;;;;;9.52;5.22;;;21.00;99.90;;;;;;5021181;28;20049;-60
2022/08/23 07:51:03;;;;;;;8.98;5.32;;;21.10;99.90;;;;;;5017670;28;20057;-59
2022/08/23 07:53:29;;;;;;;8.07;5.32;;;21.20;99.90;;;;;;5020155;28;20049;-60
2022/08/23 07:55:55;;;;;;;8.23;5.25;;;21.40;99.90;;;;;;5020750;28;20060;-60
2022/08/23 07:58:23;;;;;;;11.50;4.75;;;21.40;99.90;;;;;;5021209;28;20073;-60
2022/08/23 08:00:52;;;;;;;9.57;5.32;;;21.60;99.90;;;;;;5021028;28;20090;-60
2022/08/23 08:03:18;;;;;;;8.10;5.05;;;21.70;99.90;;;;;;5022125;28;20052;-60
2022/08/23 08:05:45;;;;;;;6.00;4.90;;;21.80;99.90;;;;;;5025840;28;20771;-60
2022/08/23 08:08:11;;;;;;;9.52;5.10;;;21.90;99.60;;;;;;5027076;28;20500;-59
2022/08/23 08:10:39;;;;;;;5.85;4.30;;;22.10;99.50;;;;;;5042369;28;20144;-60
2022/08/23 08:13:06;;;;;;;6.82;5.03;;;22.20;99.40;;;;;;5028129;28;20041;-59
2022/08/23 08:15:33;;;;;;;6.78;4.32;;;22.30;99.20;;;;;;5025824;28;20103;-59
2022/08/23 08:18:00;;;;;;;9.63;4.63;;;22.40;99.00;;;;;;5026132;28;20076;-60
2022/08/23 08:20:27;;;;;;;7.15;3.95;;;22.60;98.90;;;;;;5025652;28;20107;-59
2022/08/23 08:22:53;;;;;;;7.22;4.22;;;22.70;98.50;;;;;;5027608;28;20054;-59
2022/08/23 08:25:20;;;;;;;7.35;4.03;;;22.80;98.20;;;;;;5028049;28;20503;-59
2022/08/23 08:27:47;;;;;;;5.63;4.22;;;23.00;97.90;;;;;;5026020;28;20128;-60
2022/08/23 08:30:13;;;;;;;4.25;3.45;;;23.10;97.60;;;;;;5027134;28;20504;-60
2022/08/23 08:32:42;;;;;;;7.57;3.83;;;23.20;97.40;;;;;;5027073;28;20053;-59
2022/08/23 08:35:09;;;;;;;7.03;4.15;;;23.30;96.90;;;;;;5026323;28;20499;-60
2022/08/23 08:37:35;;;;;;;8.02;3.40;;;23.40;96.50;;;;;;5028717;28;20053;-59
2022/08/23 08:40:01;;;;;;;7.63;4.13;;;23.40;96.40;;;;;;5026644;28;20050;-60
2022/08/23 08:43:04;;;;;;;10.20;4.03;;;23.50;96.00;;;;;;5025140;28;20048;-60
2022/08/23 08:45:52;;;;;;;11.23;4.10;;;23.50;95.90;;;;;;5025929;28;20037;-60
2022/08/23 08:48:22;;;;;;;6.72;3.47;;;23.70;95.80;;;;;;5026835;28;20099;-60
2022/08/23 08:50:59;;;;;;;8.00;4.00;;;23.80;95.60;;;;;;5009647;28;20496;-60
2022/08/23 08:53:34;;;;;;;8.55;3.38;;;24.00;95.60;;;;;;5024466;28;20061;-59
2022/08/23 08:56:10;;;;;;;5.43;3.40;;;24.30;95.00;;;;;;5027147;28;20554;-60
2022/08/23 08:58:53;;;;;;;7.30;3.33;;;24.40;94.40;;;;;;5010958;28;20511;-59
2022/08/23 09:01:23;;;;;;;8.85;3.65;;;24.40;94.30;;;;;;5028030;28;20087;-60
2022/08/23 09:03:49;;;;;;;5.97;3.50;;;24.50;94.00;;;;;;5025691;28;20037;-58
2022/08/23 09:06:54;;;;;;;5.90;3.45;;;24.60;93.40;;;;;;5026026;28;20049;-60
2022/08/23 09:09:53;;;;;;;7.35;3.53;;;24.60;93.40;;;;;;4998609;28;20053;-60
2022/08/23 09:12:33;;;;;;;6.53;3.20;;;24.90;93.30;;;;;;5025432;28;20049;-60
2022/08/23 09:15:34;;;;;;;8.57;3.08;;;25.10;92.90;;;;;;5023482;28;20044;-59
2022/08/23 09:18:12;;;;;;;7.18;2.63;;;25.30;92.20;;;;;;5021479;28;20810;-61
2022/08/23 09:20:40;;;;;;;5.35;2.80;;;25.50;91.70;;;;;;5022345;28;20519;-61
2022/08/23 09:23:28;;;;;;;7.72;3.03;;;25.60;91.50;;;;;;5023114;28;20123;-60
2022/08/23 09:26:00;;;;;;;10.35;3.40;;;25.80;91.20;;;;;;5022765;28;20045;-60
2022/08/23 09:28:32;;;;;;;5.60;2.90;;;26.00;90.50;;;;;;5025220;28;20468;-60
2022/08/23 09:30:59;;;;;;;8.30;3.05;;;26.10;90.00;;;;;;5023467;28;20043;-61
2022/08/23 09:33:40;;;;;;;8.65;3.00;;;26.20;89.90;;;;;;5020868;28;20049;-60
2022/08/23 09:36:35;;;;;;;8.38;3.40;;;26.50;88.50;;;;;;5023320;28;20675;-61
2022/08/23 09:39:08;;;;;;;5.47;2.70;;;26.60;86.90;;;;;;5013597;28;20349;-61
2022/08/23 09:41:40;;;;;;;4.28;2.40;;;26.80;86.70;;;;;;5022911;28;20049;-61
2022/08/23 09:44:13;;;;;;;9.15;2.83;;;27.00;85.70;;;;;;5024568;28;20447;-59
2022/08/23 09:46:42;;;;;;;3.97;2.35;;;27.00;83.60;;;;;;5024081;28;20123;-61
2022/08/23 09:49:29;;;;;;;5.40;2.70;;;27.10;82.40;;;;;;5022958;28;20084;-60
2022/08/23 09:51:59;;;;;;;5.20;2.38;;;27.00;81.80;;;;;;5022051;28;20057;-60
2022/08/23 09:54:34;;;;;;;4.28;2.47;;;26.80;81.30;;;;;;5021701;28;20050;-61
2022/08/23 09:57:04;;;;;;;5.63;2.65;;;26.80;81.70;;;;;;5022569;28;20477;-60
2022/08/23 09:59:50;;;;;;;7.35;2.67;;;26.70;81.20;;;;;;5021690;28;20054;-61
2022/08/23 10:02:25;;;;;;;6.75;2.70;;;26.90;81.20;;;;;;5023645;28;20042;-61
2022/08/23 10:04:57;;;;;;;4.43;2.47;;;27.10;81.00;;;;;;5023441;28;20037;-59
2022/08/23 10:07:40;;;;;;;6.53;2.90;;;27.20;80.20;;;;;;5022200;28;20115;-61
2022/08/23 10:10:45;;;;;;;6.55;3.08;;;27.30;80.90;;;;;;5022993;28;20100;-61
2022/08/23 10:13:12;;;;;;;4.13;2.60;;;27.50;80.10;;;;;;5021960;28;20130;-60
2022/08/23 10:16:07;;;;;;;7.10;2.78;;;27.80;79.50;;;;;;5022453;28;20517;-61
2022/08/23 10:18:50;;;;;;;7.35;2.50;;;28.00;78.80;;;;;;5013301;28;20041;-61
2022/08/23 10:21:31;;;;;;;4.45;2.38;;;28.10;76.20;;;;;;5021361;28;20484;-60
2022/08/23 10:24:02;;;;;;;9.02;2.55;;;28.30;76.40;;;;;;5020288;28;20521;-61
2022/08/23 10:26:34;;;;;;;6.18;2.30;;;28.50;75.60;;;;;;5021816;28;20041;-60
2022/08/23 10:29:39;;;;;;;8.07;2.27;;;28.80;74.70;;;;;;5023430;28;20108;-62
2022/08/23 10:32:04;;;;;;;6.53;2.58;;;28.90;73.70;;;;;;5021312;28;20323;-61
2022/08/23 10:34:39;;;;;;;3.78;2.45;;;29.00;72.60;;;;;;5021282;28;20049;-61
2022/08/23 10:37:26;;;;;;;6.05;2.20;;;29.10;72.10;;;;;;5022119;28;20160;-62
2022/08/23 10:40:08;;;;;;;4.47;2.33;;;29.30;71.90;;;;;;5021082;28;20439;-61
2022/08/23 10:42:49;;;;;;;6.93;2.40;;;29.40;71.20;;;;;;5022294;28;20045;-62
2022/08/23 10:45:25;;;;;;;5.68;2.25;;;29.60;71.00;;;;;;5021754;28;20121;-61
2022/08/23 10:47:57;;;;;;;7.35;2.45;;;29.60;70.40;;;;;;5019921;28;20483;-61
2022/08/23 10:50:27;;;;;;;4.40;2.53;;;29.70;69.30;;;;;;5019992;28;21208;-63
2022/08/23 10:53:09;;;;;;;6.75;2.50;;;29.80;69.20;;;;;;5022641;28;20079;-62
2022/08/23 10:56:01;;;;;;;4.63;2.30;;;29.90;68.20;;;;;;5022812;28;20042;-62
2022/08/23 10:58:54;;;;;;;4.88;2.47;;;30.00;68.10;;;;;;5023129;28;20124;-61
2022/08/23 11:01:33;;;;;;;5.75;2.97;;;30.10;68.40;;;;;;5019756;28;20131;-61
2022/08/23 11:04:02;;;;;;;4.53;2.30;;;30.30;68.10;;;;;;5020586;28;20041;-60
2022/08/23 11:06:34;;;;;;;4.75;2.20;;;30.30;65.70;;;;;;5020365;28;20045;-61
2022/08/23 11:09:00;;;;;;;7.45;3.03;;;30.40;64.80;;;;;;5020961;28;20052;-61
2022/08/23 11:11:48;;;;;;;6.32;2.40;;;30.40;64.20;;;;;;5021770;28;20049;-61
2022/08/23 11:14:29;;;;;;;6.50;2.42;;;30.30;63.70;;;;;;5021412;28;20132;-60
2022/08/23 11:17:01;;;;;;;5.03;2.40;;;30.30;64.60;;;;;;5022948;28;20060;-61
2022/08/23 11:19:46;;;;;;;;;;;30.40;63.60;;;;;;5021362;28;20049;-61
2022/08/23 11:22:51;;;;;;;4.90;2.30;;;30.60;64.10;;;;;;5021799;28;20382;-61
2022/08/23 11:25:17;;;;;;;4.50;2.25;;;30.70;64.00;;;;;;5020556;28;20045;-61
2022/08/23 11:27:43;;;;;;;5.00;2.33;;;30.80;63.40;;;;;;5021667;28;20048;-61
2022/08/23 11:30:30;;;;;;;4.75;2.25;;;30.80;62.80;;;;;;5020101;28;20476;-61
2022/08/23 11:33:14;;;;;;;5.25;2.50;;;30.90;62.50;;;;;;5021849;28;20434;-61
2022/08/23 11:36:08;;;;;;;8.60;2.53;;;31.00;61.10;;;;;;5021620;28;20112;-61
2022/08/23 11:38:46;;;;;;;5.45;2.85;;;31.10;62.00;;;;;;5015286;28;20095;-60
2022/08/23 11:41:18;;;;;;;4.32;2.38;;;31.20;61.00;;;;;;5022283;28;20487;-61
2022/08/23 11:43:46;;;;;;;5.03;2.30;;;31.20;60.20;;;;;;5021952;28;20042;-61
2022/08/23 11:46:33;;;;;;;4.05;2.00;;;31.40;61.00;;;;;;5020503;28;20041;-61
2022/08/23 11:49:29;;;;;;;5.20;2.63;;;31.60;61.40;;;;;;5021422;28;20064;-61
2022/08/23 11:52:13;;;;;;;9.63;2.60;;;31.70;59.20;;;;;;5020419;28;20067;-62
2022/08/23 11:55:00;;;;;;;6.13;2.20;;;31.80;59.20;;;;;;5021197;28;20033;-61
2022/08/23 11:57:45;;;;;;;5.20;2.50;;;31.90;59.90;;;;;;5021422;28;20040;-60
2022/08/23 12:00:46;;;;;;;3.05;2.08;;;32.00;60.00;;;;;;5019699;28;20045;-61
2022/08/23 12:03:46;;;;;;;6.50;2.20;;;32.10;58.50;;;;;;5020388;28;20053;-61
2022/08/23 12:06:38;;;;;;;4.13;2.30;;;32.20;59.50;;;;;;5018315;28;20136;-62
2022/08/23 12:09:35;;;;;;;7.53;2.40;;;32.20;57.10;;;;;;5020982;28;20048;-61
2022/08/23 12:12:01;;;;;;;4.38;2.67;;;32.40;59.10;;;;;;5020172;28;20095;-61
2022/08/23 12:14:40;;;;;;;9.10;2.60;;;32.50;57.60;;;;;;5020869;28;20049;-61
2022/08/23 12:17:12;;;;;;;7.57;2.70;;;32.60;57.20;;;;;;5022585;28;20056;-62
2022/08/23 12:20:04;;;;;;;7.10;2.22;;;32.90;57.10;;;;;;5020115;28;20107;-61
2022/08/23 12:22:49;;;;;;;;;;;33.10;56.70;;;;;;5016600;28;20049;-62
2022/08/23 12:25:18;;;;;;;5.97;1.98;;;33.10;58.20;;;;;;5019508;28;20302;-62
2022/08/23 12:27:56;;;;;;;6.68;2.10;;;33.10;55.00;;;;;;5020081;28;20041;-61
2022/08/23 12:31:00;;;;;;;4.07;2.08;;;32.90;54.30;;;;;;5020336;28;20548;-61
2022/08/23 12:33:35;;;;;;;5.57;2.03;;;32.90;54.40;;;;;;5022810;28;20045;-62
2022/08/23 12:36:07;;;;;;;5.15;2.17;;;32.90;54.70;;;;;;5020563;28;20545;-62
2022/08/23 12:39:06;;;;;;;5.63;2.20;;;32.90;54.70;;;;;;5019684;28;20096;-62
2022/08/23 12:41:54;;;;;;;5.15;2.25;;;32.70;54.60;;;;;;5018436;28;20058;-61
2022/08/23 12:44:28;;;;;;;4.20;1.98;;;32.50;54.50;;;;;;5020962;28;20049;-59
2022/08/23 12:46:54;;;;;;;6.90;2.20;;;32.30;55.00;;;;;;5022058;28;20137;-62
2022/08/23 12:49:31;;;;;;;7.57;2.15;;;32.20;55.40;;;;;;5020106;28;20041;-62
2022/08/23 12:52:02;;;;;;;10.00;2.22;;;32.00;55.20;;;;;;5023948;28;20135;-61
2022/08/23 12:54:49;;;;;;;7.72;2.25;;;31.90;55.50;;;;;;5024043;28;20144;-61
2022/08/23 12:57:24;;;;;;;6.82;2.08;;;31.90;55.70;;;;;;5023420;28;20053;-61
2022/08/23 13:00:18;;;;;;;7.00;2.20;;;31.80;54.90;;;;;;5024026;28;20045;-61
2022/08/23 13:02:59;;;;;;;6.90;2.10;;;31.80;55.40;;;;;;5026245;28;20037;-61
2022/08/23 13:05:39;;;;;;;4.63;2.10;;;31.70;54.50;;;;;;5023589;28;20915;-62
2022/08/23 13:08:11;;;;;;;5.93;2.38;;;31.70;54.50;;;;;;5024523;28;20763;-62
2022/08/23 13:10:39;;;;;;;;;;;31.60;54.90;;;;;;5008190;28;20053;-61
2022/08/23 13:13:07;;;;;;;4.28;1.90;;;31.80;55.50;;;;;;5021114;28;19971;-61
2022/08/23 13:15:52;;;;;;;5.80;2.08;;;32.00;54.20;;;;;;5024063;28;20049;-61